Port Lavaca, TX

10:50 PM CST on February 12, 2016 (GMT -0600)
Oak Grove | | Change Station
CLOSE
Current Station
Personal Weather Station
Location: Port Lavaca, TX
Elevation: 26 ft
Nearby Weather Stations
Active Advisory: Dense Fog Advisory

Elev 26 ft 28.63 °N, 96.64 °W | Updated 18 seconds ago

Clear
Clear
62.1 °F
Feels Like 62.1 °F
N
0.0
Wind Variable Wind from SSE
Gusts 2.0 mph

Today
High -- | Low -- °F
--% Chance of Precip.
Yesterday
High -- | Low -- °F
Precip. -- in
Pressure 30.27 in
Visibility 10.0 miles
Clouds Clear
Dew Point 60 °F
Humidity 94%
Rainfall 0.00 in
Snow Depth Not available.
7:07 AM 6:13 PM
Waxing Crescent, 27% visible
METAR KPKV 130435Z AUTO 17005KT 10SM CLR 15/14 A3027 RMK AO2 T01450143
Pressure 30.27 in
Visibility 10.0 miles
Clouds Clear
Dew Point 60 °F
Humidity 94%
Rainfall 0.00 in
Snow Depth Not available.
7:07 AM 6:13 PM
Waxing Crescent, 27% visible
METAR KPKV 130435Z AUTO 17005KT 10SM CLR 15/14 A3027 RMK AO2 T01450143

10-Day Weather Forecast

Almanac

Astronomy

Feb. 12, 2016 Rise Set
Actual Time
Civil Twilight
Nautical Twilight
Astronomical Twilight
Moon
Length of Visible Light
Length of Day
Tomorrow will be .
, % of the Moon is Illuminated

Today's Extremes

State Highs State Lows

Community

WunderPhotos

Upload Photos

1,892,501 photos uploaded!

WunderBlog® & News

Nearby

Air Quality

  Air Quality AQ Index Pollutant
Not available.

Snow Depth

Station Depth Elevation

Earthquake Activity

City Distance Mag. Time & Date
Minimum magnitude displayed is 2.5.

Coastal Water Temperatures

Place Temperature

Stations

Nearby Weather Stations

Station Location Temp. Windchill Dew Point Humidity Wind Precip. Elev Updated Type
                   

Watches & Warnings

Dense Fog Advisory
Issued: 9:17 PM CST Feb. 12, 2016 – National Weather Service

... Dense fog advisory in effect from 2 am to 10 am CST Saturday...

The National Weather Service in Corpus Christi has issued a dense
fog advisory... which is in effect from 2 am to 10 am CST
Saturday.

* Visibility... 1/4 mile or less.

* Impacts... greatly reduced visibilities will result in
hazardous driving conditions.

Precautionary/preparedness actions...

A dense fog advisory means visibilities will frequently be
reduced to less than one quarter mile. If driving... slow down...
use low-beam headlights... and leave plenty of distance ahead of
you.